createdAt,value
2017-05-28T00:00:03.079Z,18.91
2017-05-28T00:01:13.491Z,18.89
2017-05-28T00:02:23.859Z,18.87
2017-05-28T00:03:33.903Z,18.82
2017-05-28T00:04:44.255Z,18.9
2017-05-28T00:05:54.602Z,18.87
2017-05-28T00:07:04.959Z,18.81
2017-05-28T00:08:15.310Z,18.84
2017-05-28T00:09:25.670Z,18.84
2017-05-28T00:10:36.024Z,18.81
2017-05-28T00:11:46.373Z,18.76
2017-05-28T00:12:56.784Z,18.87
2017-05-28T00:14:07.146Z,18.79
2017-05-28T00:15:17.198Z,18.82
2017-05-28T00:16:27.539Z,18.84
2017-05-28T00:17:37.579Z,18.78
2017-05-28T00:18:47.946Z,18.78
2017-05-28T00:19:57.975Z,18.78
2017-05-28T00:21:08.042Z,18.75
2017-05-28T00:22:18.088Z,18.68
2017-05-28T00:23:28.455Z,18.63
2017-05-28T00:24:38.846Z,18.63
2017-05-28T00:25:49.218Z,18.69
2017-05-28T00:26:59.557Z,18.6
2017-05-28T00:28:09.283Z,18.59
2017-05-28T00:29:19.635Z,18.63
2017-05-28T00:30:29.713Z,18.56
2017-05-28T00:31:40.054Z,18.68
2017-05-28T00:32:50.404Z,18.57
2017-05-28T00:34:00.456Z,18.6
2017-05-28T00:35:10.811Z,18.59
2017-05-28T00:36:20.914Z,18.6
2017-05-28T00:37:31.259Z,18.56
2017-05-28T00:38:41.663Z,18.6
2017-05-28T00:39:52.014Z,18.53
2017-05-28T00:41:02.358Z,18.51
2017-05-28T00:42:12.758Z,18.45
2017-05-28T00:43:22.802Z,18.53
2017-05-28T00:44:32.855Z,18.47
2017-05-28T00:45:42.892Z,18.42
2017-05-28T00:46:53.246Z,18.49
2017-05-28T00:48:03.596Z,18.36
2017-05-28T00:49:13.629Z,18.29
2017-05-28T00:50:23.971Z,18.31
2017-05-28T00:51:34.007Z,18.35
2017-05-28T00:52:44.363Z,18.31
2017-05-28T00:53:54.706Z,18.27
2017-05-28T00:55:05.048Z,18.27
2017-05-28T00:56:15.399Z,18.17
2017-05-28T00:57:25.741Z,18.23
2017-05-28T00:58:36.089Z,18.27
2017-05-28T00:59:45.826Z,18.17
2017-05-28T01:00:56.233Z,18.17
2017-05-28T01:02:06.583Z,18.23
2017-05-28T01:03:16.938Z,18.27
2017-05-28T01:04:26.671Z,18.21
2017-05-28T01:05:36.778Z,18.21
2017-05-28T01:06:47.121Z,18.16
2017-05-28T01:07:57.174Z,18.21
2017-05-28T01:09:07.212Z,18.19
2017-05-28T01:10:17.547Z,18.16
2017-05-28T01:11:27.973Z,18.2
2017-05-28T01:12:38.332Z,18.13
2017-05-28T01:13:48.680Z,18.2
2017-05-28T01:14:59.036Z,18.29
2017-05-28T01:16:09.384Z,18.17
2017-05-28T01:17:19.735Z,18.21
2017-05-28T01:18:30.098Z,18.19
2017-05-28T01:19:40.141Z,18.16
2017-05-28T01:20:50.167Z,18.17
2017-05-28T01:22:00.509Z,18.2
2017-05-28T01:23:10.903Z,18.14
2017-05-28T01:24:21.269Z,18.11
2017-05-28T01:25:31.652Z,18.11
2017-05-28T01:26:41.994Z,18.06
2017-05-28T01:27:52.346Z,18.02
2017-05-28T01:29:02.702Z,17.99
2017-05-28T01:30:13.047Z,17.95
2017-05-28T01:31:23.413Z,17.95
2017-05-28T01:32:33.766Z,17.99
2017-05-28T01:33:43.815Z,17.86
2017-05-28T01:34:53.622Z,17.9
2017-05-28T01:36:03.984Z,17.81
2017-05-28T01:37:14.345Z,17.79
2017-05-28T01:38:24.703Z,17.79
2017-05-28T01:39:35.043Z,17.74
2017-05-28T01:40:45.071Z,17.65
2017-05-28T01:41:55.112Z,17.74
2017-05-28T01:43:05.456Z,17.74
2017-05-28T01:44:15.499Z,17.65
2017-05-28T01:45:25.863Z,17.66
2017-05-28T01:46:36.260Z,17.66
2017-05-28T01:47:46.617Z,17.62
2017-05-28T01:48:56.964Z,17.62
2017-05-28T01:50:06.695Z,17.6
2017-05-28T01:51:17.043Z,17.6
2017-05-28T01:52:26.823Z,17.6
2017-05-28T01:53:37.175Z,17.66
2017-05-28T01:54:47.240Z,17.52
2017-05-28T01:55:57.272Z,17.55
2017-05-28T01:57:07.302Z,17.47
2017-05-28T01:58:17.398Z,17.5
2017-05-28T01:59:27.744Z,17.55
2017-05-28T02:00:38.083Z,17.54
2017-05-28T02:01:48.432Z,17.55
2017-05-28T02:02:58.788Z,17.54
2017-05-28T02:04:08.877Z,17.57
2017-05-28T02:05:19.235Z,17.58
2017-05-28T02:06:29.578Z,17.54
2017-05-28T02:07:39.605Z,17.54
2017-05-28T02:08:49.635Z,17.43
2017-05-28T02:10:00.049Z,17.46
2017-05-28T02:11:10.397Z,17.43
2017-05-28T02:12:20.750Z,17.49
2017-05-28T02:13:30.817Z,17.47
2017-05-28T02:14:41.163Z,17.43
2017-05-28T02:15:51.499Z,17.39
2017-05-28T02:17:01.847Z,17.45
2017-05-28T02:18:12.189Z,17.43
2017-05-28T02:19:22.554Z,17.43
2017-05-28T02:20:32.921Z,17.42
2017-05-28T02:21:43.005Z,17.39
2017-05-28T02:22:53.051Z,17.4
2017-05-28T02:24:03.404Z,17.38
2017-05-28T02:25:13.465Z,17.32
2017-05-28T02:26:23.816Z,17.36
2017-05-28T02:27:33.598Z,17.24
2017-05-28T02:28:43.619Z,17.24
2017-05-28T02:29:53.663Z,17.22
2017-05-28T02:31:04.024Z,17.25
2017-05-28T02:32:14.374Z,17.18
2017-05-28T02:33:24.775Z,17.31
2017-05-28T02:34:35.195Z,17.17
2017-05-28T02:35:45.232Z,17.27
2017-05-28T02:36:55.298Z,17.13
2017-05-28T02:38:05.343Z,17.13
2017-05-28T02:39:15.737Z,17.17
2017-05-28T02:40:25.771Z,16.99
2017-05-28T02:41:35.809Z,17.06
2017-05-28T02:42:45.537Z,17
2017-05-28T02:43:55.623Z,17.1
2017-05-28T02:45:05.726Z,17.09
2017-05-28T02:46:16.075Z,17.05
2017-05-28T02:47:26.502Z,16.99
2017-05-28T02:48:36.534Z,16.99
2017-05-28T02:49:46.893Z,16.88
2017-05-28T02:50:57.362Z,16.87
2017-05-28T02:52:07.076Z,16.81
2017-05-28T02:53:17.426Z,16.85
2017-05-28T02:54:27.794Z,16.81
2017-05-28T02:55:37.504Z,16.77
2017-05-28T02:56:47.901Z,16.76
2017-05-28T02:57:57.925Z,16.81
2017-05-28T02:59:08.280Z,16.81
2017-05-28T03:00:18.646Z,16.8
2017-05-28T03:01:28.989Z,16.7
2017-05-28T03:33:30.110Z,13.53
2017-05-28T03:34:40.454Z,13.51
2017-05-28T03:35:50.803Z,13.47
2017-05-28T03:37:01.164Z,13.48
2017-05-28T03:38:11.521Z,13.57
2017-05-28T03:39:22.152Z,13.72
2017-05-28T03:40:32.168Z,13.84
2017-05-28T03:41:42.525Z,14.02
2017-05-28T03:42:52.875Z,14.19
2017-05-28T03:44:03.215Z,14.41
2017-05-28T03:45:13.554Z,14.48
2017-05-28T03:46:23.280Z,14.64
2017-05-28T03:47:33.622Z,14.79
2017-05-28T03:48:43.655Z,15.01
2017-05-28T03:49:54.004Z,15.1
2017-05-28T03:51:04.360Z,15.3
2017-05-28T03:52:14.707Z,15.44
2017-05-28T03:53:25.060Z,15.59
2017-05-28T03:54:35.420Z,15.68
2017-05-28T03:55:45.777Z,15.81
2017-05-28T03:56:55.856Z,15.88
2017-05-28T03:58:06.209Z,15.96
2017-05-28T03:59:16.554Z,16
2017-05-28T04:00:26.890Z,16.18
2017-05-28T04:01:37.240Z,16.26
2017-05-28T04:02:47.488Z,16.39
2017-05-28T04:03:57.845Z,16.45
2017-05-28T04:05:08.207Z,16.47
2017-05-28T04:06:18.595Z,16.55
2017-05-28T04:07:28.942Z,16.57
2017-05-28T04:08:39.034Z,16.69
2017-05-28T04:09:49.077Z,16.76
2017-05-28T04:10:59.110Z,16.85
2017-05-28T04:12:09.467Z,16.91
2017-05-28T04:13:19.826Z,16.99
2017-05-28T04:14:30.229Z,17.05
2017-05-28T04:15:40.581Z,17.06
2017-05-28T04:16:50.937Z,17.12
2017-05-28T04:18:01.292Z,17.42
2017-05-28T04:19:11.348Z,18.91
2017-05-28T04:20:21.747Z,20.68
2017-05-28T04:21:32.081Z,22.08
2017-05-28T04:22:42.428Z,23.12
2017-05-28T04:23:52.478Z,23.93
2017-05-28T04:25:02.814Z,24.71
2017-05-28T04:26:13.219Z,25.32
2017-05-28T04:27:23.576Z,25.85
2017-05-28T04:28:33.928Z,26.31
2017-05-28T04:29:43.982Z,26.71
2017-05-28T04:30:54.323Z,27.06
2017-05-28T04:32:04.719Z,27.38
2017-05-28T04:33:15.069Z,27.89
2017-05-28T04:34:25.127Z,28.14
2017-05-28T04:35:35.487Z,28.26
2017-05-28T04:36:45.834Z,28.51
2017-05-28T04:37:56.240Z,28.76
2017-05-28T04:39:06.596Z,29.03
2017-05-28T04:40:16.952Z,29.39
2017-05-28T04:41:27.300Z,29.47
2017-05-28T04:42:37.652Z,29.61
2017-05-28T04:43:47.385Z,29.77
2017-05-28T04:44:57.120Z,29.95
2017-05-28T04:46:07.486Z,30.09
2017-05-28T04:47:17.858Z,30.14
2017-05-28T04:48:28.206Z,30.25
2017-05-28T04:49:38.562Z,30.35
2017-05-28T04:50:48.931Z,30.54
2017-05-28T04:51:58.983Z,30.52
2017-05-28T04:53:09.043Z,30.6
2017-05-28T04:54:19.395Z,30.7
2017-05-28T04:55:29.807Z,30.71
2017-05-28T04:56:39.861Z,30.84
2017-05-28T04:57:50.209Z,30.86
2017-05-28T04:59:00.562Z,30.91
2017-05-28T05:00:10.908Z,30.96
2017-05-28T05:01:21.307Z,30.99
2017-05-28T05:02:31.392Z,31.15
2017-05-28T05:03:41.447Z,31.28
2017-05-28T05:04:51.801Z,31.34
2017-05-28T05:06:02.163Z,31.4
2017-05-28T05:07:12.520Z,31.44
2017-05-28T05:08:22.885Z,31.44
2017-05-28T05:09:33.232Z,31.45
2017-05-28T05:10:43.598Z,31.45
2017-05-28T05:11:53.952Z,31.49
2017-05-28T05:13:04.327Z,31.52
2017-05-28T05:14:14.690Z,31.56
2017-05-28T05:15:25.043Z,31.52
2017-05-28T05:16:35.459Z,31.49
2017-05-28T05:17:45.820Z,31.45
2017-05-28T05:18:56.177Z,31.52
2017-05-28T05:20:06.554Z,31.5
2017-05-28T05:21:16.891Z,31.65
2017-05-28T05:22:27.242Z,31.75
2017-05-28T05:23:37.276Z,31.91
2017-05-28T05:24:47.362Z,31.95
2017-05-28T05:25:57.711Z,32.03
2017-05-28T05:27:08.074Z,32.12
2017-05-28T05:28:18.426Z,32.06
2017-05-28T05:29:28.472Z,31.95
2017-05-28T05:30:38.865Z,31.87
2017-05-28T05:31:49.271Z,31.91
2017-05-28T05:32:59.318Z,31.88
2017-05-28T05:34:09.038Z,31.88
2017-05-28T05:35:19.386Z,31.9
2017-05-28T05:36:29.817Z,31.78
2017-05-28T05:37:40.162Z,31.72
2017-05-28T05:38:50.561Z,31.58
2017-05-28T05:40:00.623Z,31.58
2017-05-28T05:41:10.992Z,31.53
2017-05-28T05:42:21.381Z,31.47
2017-05-28T05:43:31.493Z,31.47
2017-05-28T05:44:41.876Z,31.4
2017-05-28T05:45:52.242Z,31.43
2017-05-28T05:47:02.307Z,31.31
2017-05-28T05:48:12.710Z,31.19
2017-05-28T05:49:23.071Z,31.07
2017-05-28T05:50:33.121Z,31.03
2017-05-28T05:51:43.486Z,30.99
2017-05-28T05:52:53.853Z,30.81
2017-05-28T05:54:04.261Z,30.7
2017-05-28T05:55:14.605Z,30.44
2017-05-28T05:56:24.975Z,30.28
2017-05-28T05:57:35.325Z,30.11
2017-05-28T05:58:45.758Z,29.95
2017-05-28T05:59:55.860Z,30.02
2017-05-28T06:01:05.923Z,30
2017-05-28T06:02:16.275Z,29.81
2017-05-28T06:03:26.623Z,29.67
2017-05-28T06:04:36.988Z,29.51
2017-05-28T06:05:47.347Z,29.4
2017-05-28T06:06:57.394Z,29.3
2017-05-28T06:08:07.431Z,29.33
2017-05-28T06:09:17.802Z,29.24
2017-05-28T06:10:27.844Z,29.17
2017-05-28T06:11:38.242Z,29.1
2017-05-28T06:12:48.299Z,29.11
2017-05-28T06:13:58.360Z,28.94
2017-05-28T06:15:08.724Z,28.31
2017-05-28T06:16:19.079Z,27.64
2017-05-28T06:17:29.480Z,27.16
2017-05-28T06:18:39.518Z,26.99
2017-05-28T06:19:49.879Z,26.99
2017-05-28T06:21:00.221Z,27.12
2017-05-28T06:22:10.280Z,27.36
2017-05-28T06:23:20.014Z,27.55
2017-05-28T06:24:30.394Z,27.59
2017-05-28T06:25:40.743Z,27.57
2017-05-28T06:26:51.113Z,27.49
2017-05-28T06:28:01.471Z,27.59
2017-05-28T06:29:11.544Z,27.62
2017-05-28T06:30:21.278Z,27.66
2017-05-28T06:31:31.316Z,27.66
2017-05-28T06:32:41.048Z,27.64
2017-05-28T06:33:50.774Z,27.51
2017-05-28T06:35:01.171Z,27.36
2017-05-28T06:36:11.528Z,27.41
2017-05-28T06:37:21.245Z,27.36
2017-05-28T06:38:31.279Z,27.34
2017-05-28T06:39:41.633Z,27.28
2017-05-28T06:40:52.025Z,27.11
2017-05-28T06:42:02.384Z,27.09
2017-05-28T06:43:12.759Z,26.94
2017-05-28T06:44:23.112Z,26.97
2017-05-28T06:45:33.171Z,26.94
2017-05-28T06:46:42.946Z,26.9
2017-05-28T06:47:53.318Z,26.78
2017-05-28T06:49:03.684Z,26.79
2017-05-28T06:50:14.035Z,26.63
2017-05-28T06:51:24.066Z,26.56
2017-05-28T06:52:34.159Z,26.39
2017-05-28T06:53:44.516Z,26.27
2017-05-28T06:54:54.867Z,26.3
2017-05-28T06:56:04.914Z,26.35
2017-05-28T06:57:14.966Z,26.32
2017-05-28T06:58:24.453Z,26.23
2017-05-28T06:59:34.501Z,26.23
2017-05-28T07:00:44.243Z,26.19
2017-05-28T07:01:53.984Z,26.01
2017-05-28T07:03:04.340Z,25.96
2017-05-28T07:04:14.750Z,25.91
2017-05-28T07:05:25.107Z,25.82
2017-05-28T07:06:35.473Z,25.56
2017-05-28T07:07:45.822Z,25.45
2017-05-28T07:08:56.165Z,25.49
2017-05-28T07:10:06.244Z,25.42
2017-05-28T07:11:16.593Z,25.33
2017-05-28T07:12:26.962Z,25.37
2017-05-28T07:13:37.001Z,25.33
2017-05-28T07:14:47.375Z,25.44
2017-05-28T07:15:57.736Z,25.47
2017-05-28T07:17:07.766Z,25.49
2017-05-28T07:18:17.803Z,25.45
2017-05-28T07:19:28.156Z,25.51
2017-05-28T07:20:38.201Z,25.6
2017-05-28T07:21:48.244Z,25.64
2017-05-28T07:22:58.595Z,25.62
2017-05-28T07:24:08.652Z,25.57
2017-05-28T07:25:19.000Z,25.71
2017-05-28T07:26:29.354Z,25.74
2017-05-28T07:27:39.772Z,25.75
2017-05-28T07:28:49.819Z,25.66
2017-05-28T07:30:00.176Z,25.6
2017-05-28T07:31:10.537Z,25.71
2017-05-28T07:32:20.969Z,25.63
2017-05-28T07:33:31.387Z,25.6
2017-05-28T07:34:41.767Z,25.71
2017-05-28T07:35:51.803Z,25.71
2017-05-28T07:37:02.145Z,25.82
2017-05-28T07:38:12.178Z,25.79
2017-05-28T07:39:22.597Z,25.81
2017-05-28T07:40:32.653Z,25.81
2017-05-28T07:41:43.023Z,25.91
2017-05-28T07:42:53.085Z,25.86
2017-05-28T07:44:03.442Z,25.89
2017-05-28T07:45:13.802Z,25.82
2017-05-28T07:46:23.849Z,25.99
2017-05-28T07:47:34.205Z,25.97
2017-05-28T07:48:44.251Z,26.11
2017-05-28T07:49:54.294Z,26.19
2017-05-28T07:51:04.389Z,26.24
2017-05-28T07:52:14.749Z,26.27
2017-05-28T07:53:24.790Z,26.26
2017-05-28T07:54:35.140Z,26.34
2017-05-28T07:55:45.578Z,26.26
2017-05-28T07:56:55.689Z,26.27
2017-05-28T07:58:06.118Z,26.34
2017-05-28T07:59:16.498Z,26.27
2017-05-28T08:00:26.880Z,26.38
2017-05-28T08:01:37.241Z,26.32
2017-05-28T08:02:47.618Z,26.38
2017-05-28T08:03:57.995Z,26.47
2017-05-28T08:05:08.057Z,26.5
2017-05-28T08:06:18.421Z,26.54
2017-05-28T08:07:28.477Z,26.57
2017-05-28T08:08:38.840Z,26.67
2017-05-28T08:09:49.206Z,26.49
2017-05-28T08:10:59.587Z,26.57
2017-05-28T08:12:10.169Z,26.61
2017-05-28T08:13:20.534Z,26.71
2017-05-28T08:14:30.900Z,26.68
2017-05-28T08:15:40.946Z,26.78
2017-05-28T08:16:51.301Z,26.81
2017-05-28T08:18:01.668Z,26.91
2017-05-28T08:19:12.040Z,26.94
2017-05-28T08:20:22.398Z,26.97
2017-05-28T08:21:32.760Z,27.08
2017-05-28T08:22:42.805Z,27.11
2017-05-28T08:23:53.190Z,27.15
2017-05-28T08:25:03.547Z,27.08
2017-05-28T08:26:13.632Z,27.13
2017-05-28T08:27:23.996Z,27.08
2017-05-28T08:28:34.356Z,27.11
2017-05-28T08:29:44.405Z,27.13
2017-05-28T08:30:54.770Z,27.13
2017-05-28T08:32:05.175Z,27.18
2017-05-28T08:33:15.550Z,27.24
2017-05-28T08:34:25.918Z,27.24
2017-05-28T08:35:36.274Z,27.36
2017-05-28T08:36:46.316Z,27.38
2017-05-28T08:37:56.691Z,27.34
2017-05-28T08:39:06.733Z,27.42
2017-05-28T08:40:17.102Z,27.48
2017-05-28T08:41:27.469Z,27.48
2017-05-28T08:42:37.852Z,27.57
2017-05-28T08:43:48.275Z,27.66
2017-05-28T08:44:58.631Z,27.64
2017-05-28T08:46:08.993Z,27.62
2017-05-28T08:47:19.349Z,27.59
2017-05-28T08:48:29.411Z,27.55
2017-05-28T08:49:39.789Z,27.62
2017-05-28T08:50:49.828Z,27.64
2017-05-28T08:51:59.887Z,27.68
2017-05-28T08:53:09.924Z,27.69
2017-05-28T08:54:20.290Z,27.84
2017-05-28T08:55:30.375Z,27.84
2017-05-28T08:56:40.939Z,27.87
2017-05-28T08:57:51.307Z,27.94
2017-05-28T08:59:01.038Z,28.01
2017-05-28T09:00:10.453Z,27.98
2017-05-28T09:01:20.873Z,27.98
2017-05-28T09:02:31.278Z,27.99
2017-05-28T09:03:41.681Z,28.02
2017-05-28T09:04:52.045Z,28.01
2017-05-28T09:06:02.393Z,27.91
2017-05-28T09:07:12.506Z,27.99
2017-05-28T09:08:22.871Z,27.94
2017-05-28T09:09:33.256Z,27.91
2017-05-28T09:10:43.633Z,27.96
2017-05-28T09:11:53.990Z,27.99
2017-05-28T09:13:04.101Z,28.01
2017-05-28T09:14:14.143Z,28.06
2017-05-28T09:15:24.184Z,28.14
2017-05-28T09:16:34.236Z,28.11
2017-05-28T09:17:44.600Z,28.09
2017-05-28T09:18:54.970Z,28.12
2017-05-28T09:20:05.322Z,28.16
2017-05-28T09:21:15.380Z,28.14
2017-05-28T09:22:25.412Z,28.16
2017-05-28T09:23:35.471Z,28.21
2017-05-28T09:24:45.900Z,28.26
2017-05-28T09:25:56.255Z,28.24
2017-05-28T09:27:06.614Z,28.31
2017-05-28T09:28:16.962Z,28.33
2017-05-28T09:29:27.009Z,28.26
2017-05-28T09:30:37.074Z,28.28
2017-05-28T09:31:47.179Z,28.35
2017-05-28T09:32:57.260Z,28.31
2017-05-28T09:34:07.622Z,28.31
2017-05-28T09:35:17.660Z,28.35
2017-05-28T09:36:28.077Z,28.42
2017-05-28T09:37:38.421Z,28.38
2017-05-28T09:38:48.772Z,28.45
2017-05-28T09:39:59.134Z,28.41
2017-05-28T09:41:09.537Z,28.45
2017-05-28T09:42:19.652Z,28.42
2017-05-28T09:43:29.682Z,28.43
2017-05-28T09:44:39.720Z,28.57
2017-05-28T09:45:50.068Z,28.67
2017-05-28T09:47:00.423Z,28.73
2017-05-28T09:48:10.473Z,28.83
2017-05-28T09:49:20.851Z,28.85
2017-05-28T09:50:31.264Z,28.86
2017-05-28T09:51:41.644Z,28.78
2017-05-28T09:52:52.011Z,28.85
2017-05-28T09:54:02.389Z,28.83
2017-05-28T09:55:12.746Z,28.88
2017-05-28T09:56:23.102Z,28.91
2017-05-28T09:57:33.179Z,28.85
2017-05-28T09:58:43.561Z,28.76
2017-05-28T09:59:53.916Z,28.7
2017-05-28T10:01:04.285Z,28.73
2017-05-28T10:02:14.335Z,28.78
2017-05-28T10:03:24.378Z,28.73
2017-05-28T10:04:34.449Z,28.85
2017-05-28T10:05:44.812Z,28.88
2017-05-28T10:06:54.889Z,28.83
2017-05-28T10:08:05.259Z,28.92
2017-05-28T10:09:15.329Z,28.94
2017-05-28T10:10:25.370Z,28.94
2017-05-28T10:11:35.755Z,28.91
2017-05-28T10:12:46.093Z,29.03
2017-05-28T10:13:56.464Z,28.92
2017-05-28T10:15:06.837Z,28.94
2017-05-28T10:16:16.579Z,28.97
2017-05-28T10:17:26.634Z,28.92
2017-05-28T10:18:36.993Z,28.95
2017-05-28T10:19:47.356Z,29.1
2017-05-28T10:20:57.719Z,29.11
2017-05-28T10:22:08.092Z,29.23
2017-05-28T10:23:18.468Z,29.45
2017-05-28T10:24:28.855Z,29.45
2017-05-28T10:25:39.230Z,29.57
2017-05-28T10:26:49.622Z,29.58
2017-05-28T10:27:59.970Z,29.51
2017-05-28T10:29:10.394Z,29.45
2017-05-28T10:30:20.770Z,29.55
2017-05-28T10:31:31.124Z,29.43
2017-05-28T10:32:41.472Z,29.51
2017-05-28T10:33:51.843Z,29.47
2017-05-28T10:35:01.931Z,29.5
2017-05-28T10:36:12.284Z,29.43
2017-05-28T10:37:22.638Z,29.52
2017-05-28T10:38:32.696Z,29.69
2017-05-28T10:39:43.047Z,29.61
2017-05-28T10:40:53.721Z,29.75
2017-05-28T10:42:04.081Z,29.79
2017-05-28T10:43:14.459Z,29.72
2017-05-28T10:44:24.832Z,29.75
2017-05-28T10:45:34.886Z,29.73
2017-05-28T10:46:45.260Z,29.7
2017-05-28T10:47:55.616Z,29.72
2017-05-28T10:49:05.667Z,29.76
2017-05-28T10:50:15.734Z,29.89
2017-05-28T10:51:26.102Z,30
2017-05-28T10:52:36.510Z,30.1
2017-05-28T10:53:46.869Z,30.03
2017-05-28T10:54:56.950Z,30.14
2017-05-28T10:56:06.996Z,30.16
2017-05-28T10:57:17.024Z,30.16
2017-05-28T10:58:27.387Z,30.21
2017-05-28T10:59:37.736Z,30.22
2017-05-28T11:00:47.806Z,30.26
2017-05-28T11:01:57.867Z,30.26
2017-05-28T11:03:08.221Z,30.28
2017-05-28T11:04:18.598Z,30.35
2017-05-28T11:05:28.651Z,30.29
2017-05-28T11:06:38.688Z,30.26
2017-05-28T11:07:48.734Z,30.26
2017-05-28T11:08:59.111Z,30.26
2017-05-28T11:10:09.493Z,30.29
2017-05-28T11:11:19.545Z,30.26
2017-05-28T11:12:29.598Z,30.25
2017-05-28T11:13:39.955Z,30.29
2017-05-28T11:14:49.991Z,30.28
2017-05-28T11:15:59.796Z,30.37
2017-05-28T11:17:10.142Z,30.35
2017-05-28T11:18:20.522Z,30.4
2017-05-28T11:19:30.912Z,30.45
2017-05-28T11:20:40.954Z,30.34
2017-05-28T11:21:51.052Z,30.26
2017-05-28T11:23:01.401Z,30.32
2017-05-28T11:24:11.132Z,30.4
2017-05-28T11:25:21.487Z,30.45
2017-05-28T11:26:31.846Z,30.29
2017-05-28T11:27:41.960Z,30.32
2017-05-28T11:28:52.328Z,30.35
2017-05-28T11:30:02.667Z,30.42
2017-05-28T11:31:13.043Z,30.49
2017-05-28T11:32:23.106Z,30.48
2017-05-28T11:33:32.875Z,30.49
2017-05-28T11:34:43.237Z,30.45
2017-05-28T11:35:53.596Z,30.45
2017-05-28T11:37:03.647Z,30.51
2017-05-28T11:38:13.702Z,30.56
2017-05-28T11:39:24.122Z,30.45
2017-05-28T11:40:34.494Z,30.64
2017-05-28T11:41:44.537Z,30.67
2017-05-28T11:42:54.930Z,30.67
2017-05-28T11:44:05.307Z,30.78
2017-05-28T11:45:15.712Z,30.77
2017-05-28T11:46:25.790Z,30.71
2017-05-28T11:47:36.150Z,30.7
2017-05-28T11:48:46.532Z,30.79
2017-05-28T11:49:56.903Z,30.89
2017-05-28T11:51:07.272Z,31.01
2017-05-28T11:52:17.642Z,30.97
2017-05-28T11:53:28.003Z,31.03
2017-05-28T11:54:38.381Z,31.01
2017-05-28T11:55:48.770Z,30.94
2017-05-28T11:56:59.181Z,30.97
2017-05-28T11:58:09.543Z,30.89
2017-05-28T11:59:19.915Z,30.89
2017-05-28T12:00:29.659Z,30.78
2017-05-28T12:01:40.036Z,30.79
2017-05-28T12:02:50.467Z,30.81
2017-05-28T12:04:00.515Z,30.7
2017-05-28T12:05:10.879Z,30.71
2017-05-28T12:06:20.943Z,30.69
2017-05-28T12:07:31.330Z,30.7
2017-05-28T12:08:41.743Z,30.71
2017-05-28T12:09:52.122Z,30.67
2017-05-28T12:11:02.167Z,30.73
2017-05-28T12:12:12.542Z,30.75
2017-05-28T12:13:22.890Z,30.85
2017-05-28T12:14:33.256Z,30.96
2017-05-28T12:15:43.620Z,30.85
2017-05-28T12:16:53.974Z,30.94
2017-05-28T12:18:04.339Z,30.85
2017-05-28T12:19:14.705Z,30.85
2017-05-28T12:20:24.760Z,30.78
2017-05-28T12:21:34.825Z,30.73
2017-05-28T12:22:45.182Z,30.7
2017-05-28T12:23:55.241Z,30.75
2017-05-28T12:25:04.971Z,30.89
2017-05-28T12:26:15.389Z,30.89
2017-05-28T12:27:25.770Z,30.91
2017-05-28T12:28:36.135Z,30.93
2017-05-28T12:29:46.499Z,30.91
2017-05-28T12:30:56.231Z,30.94
2017-05-28T12:32:06.343Z,30.88
2017-05-28T12:33:16.703Z,30.86
2017-05-28T12:34:26.757Z,30.91
2017-05-28T12:35:37.135Z,30.86
2017-05-28T12:36:47.525Z,30.82
2017-05-28T12:37:57.646Z,30.88
2017-05-28T12:39:08.007Z,30.88
2017-05-28T12:40:18.377Z,30.84
2017-05-28T12:41:28.751Z,30.89
2017-05-28T12:42:38.493Z,30.91
2017-05-28T12:43:48.926Z,31.04
2017-05-28T12:44:59.276Z,31.06
2017-05-28T12:46:09.322Z,31.01
2017-05-28T12:47:19.048Z,31.16
2017-05-28T12:48:29.408Z,31.26
2017-05-28T12:49:39.840Z,31.22
2017-05-28T12:50:49.891Z,31.23
2017-05-28T12:52:00.278Z,31.22
2017-05-28T12:53:10.637Z,31.19
2017-05-28T12:54:21.011Z,31.08
2017-05-28T12:55:31.420Z,31
2017-05-28T12:56:41.168Z,30.97
2017-05-28T12:57:51.535Z,30.96
2017-05-28T12:59:02.120Z,30.89
2017-05-28T13:00:12.461Z,30.82
2017-05-28T13:01:22.905Z,30.82
2017-05-28T13:02:33.281Z,30.78
2017-05-28T13:03:43.343Z,30.75
2017-05-28T13:04:53.715Z,30.67
2017-05-28T13:06:04.083Z,30.73
2017-05-28T13:07:14.512Z,30.71
2017-05-28T13:08:24.860Z,30.75
2017-05-28T13:09:35.289Z,30.67
2017-05-28T13:10:45.665Z,30.75
2017-05-28T13:11:56.018Z,30.77
2017-05-28T13:13:06.073Z,30.75
2017-05-28T13:14:15.813Z,30.69
2017-05-28T13:15:25.249Z,30.7
2017-05-28T13:16:35.326Z,30.81
2017-05-28T13:17:45.692Z,30.85
2017-05-28T13:18:56.065Z,30.86
2017-05-28T13:20:06.110Z,30.93
2017-05-28T13:21:16.177Z,30.91
2017-05-28T13:22:26.537Z,30.89
2017-05-28T13:23:36.589Z,30.97
2017-05-28T13:24:47.014Z,30.96
2017-05-28T13:25:57.370Z,30.91
2017-05-28T13:27:07.759Z,30.86
2017-05-28T13:28:17.797Z,30.93
2017-05-28T13:29:28.219Z,30.88
2017-05-28T13:30:38.575Z,30.94
2017-05-28T13:31:48.308Z,30.93
2017-05-28T13:32:58.687Z,30.96
2017-05-28T13:34:09.053Z,30.93
2017-05-28T13:35:19.417Z,30.88
2017-05-28T13:36:29.454Z,30.93
2017-05-28T13:37:39.809Z,30.86
2017-05-28T13:38:50.179Z,30.93
2017-05-28T13:40:00.555Z,30.93
2017-05-28T13:41:10.926Z,30.99
2017-05-28T13:42:21.026Z,31.04
2017-05-28T13:43:31.381Z,31.03
2017-05-28T13:44:41.741Z,31.04
2017-05-28T13:45:52.339Z,30.99
2017-05-28T13:47:02.388Z,31.03
2017-05-28T13:48:12.797Z,31
2017-05-28T13:49:22.851Z,30.96
2017-05-28T13:50:33.222Z,31
2017-05-28T13:51:43.579Z,30.96
2017-05-28T13:52:53.625Z,30.86
2017-05-28T13:54:03.743Z,30.96
2017-05-28T13:55:13.800Z,31
2017-05-28T13:56:24.169Z,30.91
2017-05-28T13:57:34.545Z,30.88
2017-05-28T13:58:44.924Z,31.01
2017-05-28T13:59:54.720Z,30.99
2017-05-28T14:01:05.083Z,30.93
2017-05-28T14:02:15.149Z,30.89
2017-05-28T14:03:25.191Z,30.94
2017-05-28T14:04:35.228Z,30.93
2017-05-28T14:05:45.063Z,30.85
2017-05-28T14:06:55.415Z,30.82
2017-05-28T14:08:05.858Z,30.79
2017-05-28T14:09:16.249Z,30.78
2017-05-28T14:10:26.619Z,30.69
2017-05-28T14:11:37.035Z,30.73
2017-05-28T14:12:47.414Z,30.69
2017-05-28T14:13:57.778Z,30.75
2017-05-28T14:15:08.136Z,30.71
2017-05-28T14:16:18.499Z,30.73
2017-05-28T14:17:28.922Z,30.69
2017-05-28T14:18:39.298Z,30.73
2017-05-28T14:19:49.662Z,30.7
2017-05-28T14:21:00.027Z,30.64
2017-05-28T14:22:10.389Z,30.62
2017-05-28T14:23:20.493Z,30.57
2017-05-28T14:24:30.542Z,30.52
2017-05-28T14:25:40.595Z,30.54
2017-05-28T14:26:50.969Z,30.56
2017-05-28T14:28:00.721Z,30.49
2017-05-28T14:29:11.114Z,30.56
2017-05-28T14:30:21.486Z,30.47
2017-05-28T14:31:31.859Z,30.51
2017-05-28T14:32:42.241Z,30.54
2017-05-28T14:33:52.601Z,30.49
2017-05-28T14:35:01.776Z,30.48
2017-05-28T14:36:11.507Z,30.49
2017-05-28T14:37:21.576Z,30.4
2017-05-28T14:38:32.231Z,30.59
2017-05-28T14:39:42.611Z,30.48
2017-05-28T14:40:52.659Z,30.47
2017-05-28T14:42:03.023Z,30.47
2017-05-28T14:43:13.407Z,30.44
2017-05-28T14:44:23.773Z,30.35
2017-05-28T14:45:33.887Z,30.45
2017-05-28T14:46:44.028Z,30.44
2017-05-28T14:47:54.084Z,30.39
2017-05-28T14:49:04.144Z,30.24
2017-05-28T14:50:14.505Z,30.31
2017-05-28T14:51:24.877Z,30.26
2017-05-28T14:52:35.310Z,30.22
2017-05-28T14:53:45.692Z,30.22
2017-05-28T14:54:56.071Z,30.19
2017-05-28T14:56:06.450Z,30.16
2017-05-28T14:57:16.493Z,30.18
2017-05-28T14:58:26.597Z,30.21
2017-05-28T14:59:36.962Z,30.26
2017-05-28T15:00:47.338Z,30.28
2017-05-28T15:01:57.397Z,30.29
2017-05-28T15:03:07.787Z,30.25
2017-05-28T15:04:18.227Z,30.22
2017-05-28T15:05:28.589Z,30.22
2017-05-28T15:06:38.966Z,30.24
2017-05-28T15:07:49.009Z,30.26
2017-05-28T15:08:59.576Z,30.25
2017-05-28T15:10:09.927Z,30.19
2017-05-28T15:11:19.978Z,30.18
2017-05-28T15:12:30.347Z,30.11
2017-05-28T15:13:40.398Z,30.16
2017-05-28T15:14:50.812Z,30.06
2017-05-28T15:16:01.179Z,30.02
2017-05-28T15:17:11.248Z,30.02
2017-05-28T15:18:21.627Z,30.09
2017-05-28T15:19:31.688Z,30.06
2017-05-28T15:20:42.065Z,29.98
2017-05-28T15:21:51.803Z,30.04
2017-05-28T15:23:01.557Z,30.07
2017-05-28T15:24:11.934Z,30.03
2017-05-28T15:25:22.328Z,30.1
2017-05-28T15:26:32.683Z,30.09
2017-05-28T15:27:43.109Z,30.1
2017-05-28T15:28:53.478Z,30.14
2017-05-28T15:30:03.846Z,30.18
2017-05-28T15:31:13.906Z,30.16
2017-05-28T15:32:23.975Z,30.1
2017-05-28T15:33:34.196Z,30.1
2017-05-28T15:34:44.555Z,30.1
2017-05-28T15:35:54.939Z,30.09
2017-05-28T15:37:04.990Z,30.09
2017-05-28T15:38:15.368Z,30.1